PWSweather.com
Personal Weather Stations
Station Observations
IDOLNYU03
Dolnyśląsk, SmolecPL 55-080

DolnyśląskSmolecPL 55-080

Lat: 51.086984, Lon: 16.906237

Elevation: 404

Station Type: WH 2080

http://pogoda-smolec.pl

Latest ConditionsUpdated 2:46:06 PM GMT+01:01 Tuesday, Jan 23, 2018
Currently Today's Max Today's Min Today's Average
Temperature 33.6°F0.9°C 33.6°F0.9°C 28.2°F-2.1°C 30.2°F-1.0°C
Dew Point 29.0°F-1.7°C 29.0°F-1.7°C 20.0°F-6.7°C 24.5°F-4.2°C
Winds 1.6 mph NW2.6 kmh NW 4.5 mph S7.2 kmh S - 1.4 mph 2.3 kmh
Wind Gusts 3.1 mph5.0 kmh 8.3 mph13.4 kmh - -
Humidity 83% 83% 71% 79%
Pressure 30.12 in1020.0 mb 30.12 in1020.0 mb 29.81 in1009.5 mb -
Precipitation - 0.01 in0.3 mm - -
Hour Temp Dew Point Humidity Winds Wind Gusts Pressure Precip Precip Rate Daily Precip Total
02:46 PM 33.6°F0.9°C 29.0°F-1.7°C 83% 1.6 mph NW2.6 kmh NW 3.1 mph5.0 kmh 30.12 in1020.0 mb 0.00 in0.0 mm 0.00 in0.0 mm 0.01 in0.3 mm
02:42 PM 33.4°F0.8°C 28.8°F-1.8°C 83% Calm Calm -- 30.11 in1019.6 mb 0.00 in0.0 mm 0.00 in0.0 mm 0.01 in0.3 mm
02:37 PM 33.4°F0.8°C 28.8°F-1.8°C 83% 2.2 mph NW3.5 kmh NW 3.8 mph6.1 kmh 30.12 in1020.0 mb 0.00 in0.0 mm 0.00 in0.0 mm 0.01 in0.3 mm
02:32 PM 33.4°F0.8°C 28.8°F-1.8°C 83% 2.2 mph NW3.5 kmh NW 3.8 mph6.1 kmh 30.12 in1020.0 mb 0.00 in0.0 mm 0.00 in0.0 mm 0.01 in0.3 mm
02:26 PM 33.4°F0.8°C 28.8°F-1.8°C 83% 0.7 mph W1.1 kmh W 1.6 mph2.6 kmh 30.11 in1019.6 mb 0.00 in0.0 mm 0.00 in0.0 mm 0.01 in0.3 mm
02:22 PM 33.4°F0.8°C 28.8°F-1.8°C 83% 0.7 mph WSW1.1 kmh WSW 2.2 mph3.5 kmh 30.11 in1019.6 mb 0.00 in0.0 mm 0.00 in0.0 mm 0.01 in0.3 mm
02:17 PM 33.4°F0.8°C 28.8°F-1.8°C 83% 2.2 mph 3.5 kmh 4.5 mph7.2 kmh 30.11 in1019.6 mb 0.00 in0.0 mm 0.00 in0.0 mm 0.01 in0.3 mm
02:12 PM 33.3°F0.7°C 28.7°F-1.8°C 83% 1.6 mph NW2.6 kmh NW 3.1 mph5.0 kmh 30.11 in1019.6 mb 0.00 in0.0 mm 0.00 in0.0 mm 0.01 in0.3 mm
02:06 PM 33.3°F0.7°C 28.7°F-1.8°C 83% 0.7 mph NW1.1 kmh NW 1.6 mph2.6 kmh 30.11 in1019.6 mb 0.00 in0.0 mm 0.00 in0.0 mm 0.01 in0.3 mm
02:02 PM 33.3°F0.7°C 28.7°F-1.8°C 83% 0.7 mph NW1.1 kmh NW 1.6 mph2.6 kmh 30.11 in1019.6 mb 0.00 in0.0 mm 0.00 in0.0 mm 0.01 in0.3 mm
01:57 PM 33.3°F0.7°C 28.7°F-1.8°C 83% 0.7 mph W1.1 kmh W 2.2 mph3.5 kmh 30.11 in1019.6 mb 0.00 in0.0 mm 0.00 in0.0 mm 0.01 in0.3 mm
01:52 PM 33.3°F0.7°C 28.7°F-1.8°C 83% 2.2 mph NW3.5 kmh NW 3.1 mph5.0 kmh 30.11 in1019.6 mb 0.00 in0.0 mm 0.00 in0.0 mm 0.01 in0.3 mm
01:46 PM 33.3°F0.7°C 28.7°F-1.8°C 83% 1.6 mph W2.6 kmh W 2.2 mph3.5 kmh 30.11 in1019.6 mb 0.00 in0.0 mm 0.00 in0.0 mm 0.01 in0.3 mm
01:42 PM 33.3°F0.7°C 28.7°F-1.8°C 83% Calm Calm 1.6 mph2.6 kmh 30.11 in1019.6 mb 0.00 in0.0 mm 0.00 in0.0 mm 0.01 in0.3 mm
01:37 PM 33.3°F0.7°C 28.7°F-1.8°C 83% 2.2 mph W3.5 kmh W 3.8 mph6.1 kmh 30.11 in1019.6 mb 0.00 in0.0 mm 0.00 in0.0 mm 0.01 in0.3 mm
01:32 PM 33.3°F0.7°C 28.7°F-1.8°C 83% 1.6 mph NW2.6 kmh NW 2.2 mph3.5 kmh 30.11 in1019.6 mb 0.00 in0.0 mm 0.00 in0.0 mm 0.01 in0.3 mm
01:26 PM 33.3°F0.7°C 28.7°F-1.8°C 83% 0.7 mph NW1.1 kmh NW 2.2 mph3.5 kmh 30.10 in1019.3 mb 0.00 in0.0 mm 0.00 in0.0 mm 0.01 in0.3 mm
01:22 PM 33.3°F0.7°C 28.7°F-1.8°C 83% 1.6 mph NW2.6 kmh NW 3.1 mph5.0 kmh 30.11 in1019.6 mb 0.00 in0.0 mm 0.00 in0.0 mm 0.01 in0.3 mm
01:17 PM 33.3°F0.7°C 28.7°F-1.8°C 83% Calm Calm 1.6 mph2.6 kmh 30.10 in1019.3 mb 0.00 in0.0 mm 0.00 in0.0 mm 0.01 in0.3 mm
01:12 PM 33.1°F0.6°C 28.5°F-1.9°C 83% 0.7 mph NW1.1 kmh NW 2.2 mph3.5 kmh 30.10 in1019.3 mb 0.01 in0.3 mm 0.00 in0.0 mm 0.01 in0.3 mm
01:06 PM 33.1°F0.6°C 28.5°F-1.9°C 83% 0.7 mph W1.1 kmh W 1.6 mph2.6 kmh 30.10 in1019.3 mb 0.01 in0.3 mm 0.00 in0.0 mm 0.01 in0.3 mm
01:02 PM 33.1°F0.6°C 28.5°F-1.9°C 83% 0.7 mph S1.1 kmh S 1.6 mph2.6 kmh 30.10 in1019.3 mb 0.01 in0.3 mm 0.00 in0.0 mm 0.01 in0.3 mm
12:57 PM 33.1°F0.6°C 28.5°F-1.9°C 83% 0.7 mph W1.1 kmh W 1.6 mph2.6 kmh 30.10 in1019.3 mb 0.01 in0.3 mm 0.00 in0.0 mm 0.01 in0.3 mm
12:52 PM 33.1°F0.6°C 28.5°F-1.9°C 83% 1.6 mph S2.6 kmh S 3.1 mph5.0 kmh 30.10 in1019.3 mb 0.01 in0.3 mm 0.00 in0.0 mm 0.01 in0.3 mm
12:46 PM 33.1°F0.6°C 28.5°F-1.9°C 83% 0.7 mph NW1.1 kmh NW 1.6 mph2.6 kmh 30.10 in1019.3 mb 0.01 in0.3 mm 0.00 in0.0 mm 0.01 in0.3 mm
12:42 PM 32.9°F0.5°C 28.3°F-2.1°C 83% 0.7 mph SW1.1 kmh SW 3.1 mph5.0 kmh 30.09 in1019.0 mb 0.01 in0.3 mm 0.00 in0.0 mm 0.01 in0.3 mm
12:37 PM 32.9°F0.5°C 28.3°F-2.1°C 83% 1.6 mph NW2.6 kmh NW 3.1 mph5.0 kmh 30.10 in1019.3 mb 0.01 in0.3 mm 0.00 in0.0 mm 0.01 in0.3 mm
12:32 PM 32.7°F0.4°C 28.1°F-2.2°C 83% Calm Calm 0.7 mph1.1 kmh 30.09 in1019.0 mb 0.01 in0.3 mm 0.00 in0.0 mm 0.01 in0.3 mm
12:26 PM 32.5°F0.3°C 27.7°F-2.4°C 82% Calm Calm 0.7 mph1.1 kmh 30.09 in1019.0 mb 0.01 in0.3 mm 0.00 in0.0 mm 0.01 in0.3 mm
12:22 PM 32.5°F0.3°C 27.7°F-2.4°C 82% Calm Calm 1.6 mph2.6 kmh 30.09 in1019.0 mb 0.01 in0.3 mm 0.00 in0.0 mm 0.01 in0.3 mm
12:17 PM 32.4°F0.2°C 27.5°F-2.5°C 82% 0.7 mph SW1.1 kmh SW 1.6 mph2.6 kmh 30.09 in1019.0 mb 0.01 in0.3 mm 0.12 in3.0 mm 0.01 in0.3 mm
12:12 PM 32.2°F0.1°C 27.3°F-2.6°C 82% Calm Calm 1.6 mph2.6 kmh 30.09 in1019.0 mb 0.00 in0.0 mm 0.00 in0.0 mm 0.00 in0.0 mm
12:06 PM 31.8°F-0.1°C 27.3°F-2.6°C 83% Calm Calm 1.6 mph2.6 kmh 30.09 in1019.0 mb 0.00 in0.0 mm 0.00 in0.0 mm 0.00 in0.0 mm
12:02 PM 31.8°F-0.1°C 27.3°F-2.6°C 83% Calm Calm 1.6 mph2.6 kmh 30.08 in1018.6 mb 0.00 in0.0 mm 0.00 in0.0 mm 0.00 in0.0 mm
11:57 AM 31.8°F-0.1°C 27.3°F-2.6°C 83% Calm Calm 0.7 mph1.1 kmh 30.08 in1018.6 mb 0.00 in0.0 mm 0.00 in0.0 mm 0.00 in0.0 mm
11:52 AM 31.6°F-0.2°C 27.1°F-2.7°C 83% 0.7 mph S1.1 kmh S 1.6 mph2.6 kmh 30.08 in1018.6 mb 0.00 in0.0 mm 0.00 in0.0 mm 0.00 in0.0 mm
11:46 AM 31.5°F-0.3°C 26.9°F-2.8°C 83% 0.7 mph S1.1 kmh S 2.2 mph3.5 kmh 30.08 in1018.6 mb 0.00 in0.0 mm 0.00 in0.0 mm 0.00 in0.0 mm
11:42 AM 31.5°F-0.3°C 26.9°F-2.8°C 83% 0.7 mph S1.1 kmh S 1.6 mph2.6 kmh 30.08 in1018.6 mb 0.00 in0.0 mm 0.00 in0.0 mm 0.00 in0.0 mm
11:37 AM 31.5°F-0.3°C 26.6°F-3.0°C 82% 0.7 mph S1.1 kmh S 2.2 mph3.5 kmh 30.07 in1018.3 mb 0.00 in0.0 mm 0.00 in0.0 mm 0.00 in0.0 mm
11:32 AM 31.3°F-0.4°C 26.4°F-3.1°C 82% 1.6 mph S2.6 kmh S 3.1 mph5.0 kmh 30.07 in1018.3 mb 0.00 in0.0 mm 0.00 in0.0 mm 0.00 in0.0 mm
11:26 AM 31.3°F-0.4°C 26.4°F-3.1°C 82% 0.7 mph SE1.1 kmh SE 1.6 mph2.6 kmh 30.07 in1018.3 mb 0.00 in0.0 mm 0.00 in0.0 mm 0.00 in0.0 mm
11:22 AM 31.1°F-0.5°C 26.3°F-3.2°C 82% 0.7 mph SE1.1 kmh SE 2.2 mph3.5 kmh 30.07 in1018.3 mb 0.00 in0.0 mm 0.00 in0.0 mm 0.00 in0.0 mm
11:17 AM 31.1°F-0.5°C 26.3°F-3.2°C 82% 2.2 mph S3.5 kmh S 3.1 mph5.0 kmh 30.07 in1018.3 mb 0.00 in0.0 mm 0.00 in0.0 mm 0.00 in0.0 mm
11:12 AM 31.1°F-0.5°C 26.3°F-3.2°C 82% 1.6 mph S2.6 kmh S 1.6 mph2.6 kmh 30.07 in1018.3 mb 0.00 in0.0 mm 0.00 in0.0 mm 0.00 in0.0 mm
11:06 AM 31.1°F-0.5°C 26.3°F-3.2°C 82% 1.6 mph S2.6 kmh S 2.2 mph3.5 kmh 30.07 in1018.3 mb 0.00 in0.0 mm 0.00 in0.0 mm 0.00 in0.0 mm
11:02 AM 30.9°F-0.6°C 26.1°F-3.3°C 82% 1.6 mph SW2.6 kmh SW 2.2 mph3.5 kmh 30.06 in1017.9 mb 0.00 in0.0 mm 0.00 in0.0 mm 0.00 in0.0 mm
10:57 AM 30.9°F-0.6°C 26.1°F-3.3°C 82% 1.6 mph S2.6 kmh S 2.2 mph3.5 kmh 30.07 in1018.3 mb 0.00 in0.0 mm 0.00 in0.0 mm 0.00 in0.0 mm
10:52 AM 30.9°F-0.6°C 26.1°F-3.3°C 82% Calm Calm -- 30.07 in1018.3 mb 0.00 in0.0 mm 0.00 in0.0 mm 0.00 in0.0 mm
10:46 AM 30.7°F-0.7°C 25.9°F-3.4°C 82% Calm Calm 1.6 mph2.6 kmh 30.06 in1017.9 mb 0.00 in0.0 mm 0.00 in0.0 mm 0.00 in0.0 mm
10:42 AM 30.7°F-0.7°C 25.9°F-3.4°C 82% 1.6 mph S2.6 kmh S 2.2 mph3.5 kmh 30.07 in1018.3 mb 0.00 in0.0 mm 0.00 in0.0 mm 0.00 in0.0 mm
10:37 AM 30.7°F-0.7°C 25.9°F-3.4°C 82% 1.6 mph S2.6 kmh S 2.2 mph3.5 kmh 30.07 in1018.3 mb 0.00 in0.0 mm 0.00 in0.0 mm 0.00 in0.0 mm
10:32 AM 30.7°F-0.7°C 25.6°F-3.6°C 81% 0.7 mph S1.1 kmh S 2.2 mph3.5 kmh 30.06 in1017.9 mb 0.00 in0.0 mm 0.00 in0.0 mm 0.00 in0.0 mm
10:26 AM 30.7°F-0.7°C 25.6°F-3.6°C 81% 1.6 mph S2.6 kmh S 2.2 mph3.5 kmh 30.06 in1017.9 mb 0.00 in0.0 mm 0.00 in0.0 mm 0.00 in0.0 mm
10:22 AM 30.7°F-0.7°C 25.6°F-3.6°C 81% 0.7 mph S1.1 kmh S 1.6 mph2.6 kmh 30.06 in1017.9 mb 0.00 in0.0 mm 0.00 in0.0 mm 0.00 in0.0 mm
10:17 AM 30.7°F-0.7°C 25.6°F-3.6°C 81% 1.6 mph S2.6 kmh S 3.1 mph5.0 kmh 30.05 in1017.6 mb 0.00 in0.0 mm 0.00 in0.0 mm 0.00 in0.0 mm
10:12 AM 30.7°F-0.7°C 25.6°F-3.6°C 81% 1.6 mph NW2.6 kmh NW 3.1 mph5.0 kmh 30.05 in1017.6 mb 0.00 in0.0 mm 0.00 in0.0 mm 0.00 in0.0 mm
10:06 AM 30.6°F-0.8°C 25.4°F-3.7°C 81% 0.7 mph S1.1 kmh S 1.6 mph2.6 kmh 30.04 in1017.3 mb 0.00 in0.0 mm 0.00 in0.0 mm 0.00 in0.0 mm
10:02 AM 30.6°F-0.8°C 25.4°F-3.7°C 81% 0.7 mph S1.1 kmh S 1.6 mph2.6 kmh 30.05 in1017.6 mb 0.00 in0.0 mm 0.00 in0.0 mm 0.00 in0.0 mm
09:57 AM 30.6°F-0.8°C 25.4°F-3.7°C 81% Calm Calm 1.6 mph2.6 kmh 30.05 in1017.6 mb 0.00 in0.0 mm 0.00 in0.0 mm 0.00 in0.0 mm
09:52 AM 30.6°F-0.8°C 25.4°F-3.7°C 81% Calm Calm 0.7 mph1.1 kmh 30.04 in1017.3 mb 0.00 in0.0 mm 0.00 in0.0 mm 0.00 in0.0 mm
09:46 AM 30.4°F-0.9°C 25.3°F-3.7°C 81% Calm Calm -- 30.04 in1017.3 mb 0.00 in0.0 mm 0.00 in0.0 mm 0.00 in0.0 mm
09:42 AM 30.4°F-0.9°C 25.3°F-3.7°C 81% Calm Calm -- 30.04 in1017.3 mb 0.00 in0.0 mm 0.00 in0.0 mm 0.00 in0.0 mm
09:37 AM 30.4°F-0.9°C 25.3°F-3.7°C 81% 0.7 mph SW1.1 kmh SW 1.6 mph2.6 kmh 30.03 in1016.9 mb 0.00 in0.0 mm 0.00 in0.0 mm 0.00 in0.0 mm
09:32 AM 30.2°F-1.0°C 25.1°F-3.8°C 81% 0.7 mph S1.1 kmh S 2.2 mph3.5 kmh 30.04 in1017.3 mb 0.00 in0.0 mm 0.00 in0.0 mm 0.00 in0.0 mm
09:26 AM 30.2°F-1.0°C 25.1°F-3.8°C 81% 0.7 mph S1.1 kmh S 1.6 mph2.6 kmh 30.03 in1016.9 mb 0.00 in0.0 mm 0.00 in0.0 mm 0.00 in0.0 mm
09:22 AM 30.2°F-1.0°C 25.1°F-3.8°C 81% 0.7 mph S1.1 kmh S 1.6 mph2.6 kmh 30.03 in1016.9 mb 0.00 in0.0 mm 0.00 in0.0 mm 0.00 in0.0 mm
09:17 AM 30.2°F-1.0°C 25.1°F-3.8°C 81% 0.7 mph S1.1 kmh S 1.6 mph2.6 kmh 30.04 in1017.3 mb 0.00 in0.0 mm 0.00 in0.0 mm 0.00 in0.0 mm
09:12 AM 30.2°F-1.0°C 25.1°F-3.8°C 81% Calm Calm 0.7 mph1.1 kmh 30.03 in1016.9 mb 0.00 in0.0 mm 0.00 in0.0 mm 0.00 in0.0 mm
09:06 AM 30.0°F-1.1°C 25.2°F-3.8°C 82% 0.7 mph SE1.1 kmh SE 2.2 mph3.5 kmh 30.03 in1016.9 mb 0.00 in0.0 mm 0.00 in0.0 mm 0.00 in0.0 mm
09:02 AM 30.0°F-1.1°C 25.2°F-3.8°C 82% Calm Calm 1.6 mph2.6 kmh 30.02 in1016.6 mb 0.00 in0.0 mm 0.00 in0.0 mm 0.00 in0.0 mm
08:57 AM 30.0°F-1.1°C 25.2°F-3.8°C 82% Calm Calm -- 30.02 in1016.6 mb 0.00 in0.0 mm 0.00 in0.0 mm 0.00 in0.0 mm
08:52 AM 30.0°F-1.1°C 25.2°F-3.8°C 82% 1.6 mph S2.6 kmh S 2.2 mph3.5 kmh 30.02 in1016.6 mb 0.00 in0.0 mm 0.00 in0.0 mm 0.00 in0.0 mm
08:46 AM 30.0°F-1.1°C 25.2°F-3.8°C 82% 0.7 mph S1.1 kmh S 2.2 mph3.5 kmh 30.01 in1016.3 mb 0.00 in0.0 mm 0.00 in0.0 mm 0.00 in0.0 mm
08:42 AM 29.8°F-1.2°C 25.0°F-3.9°C 82% 0.7 mph S1.1 kmh S 1.6 mph2.6 kmh 30.01 in1016.3 mb 0.00 in0.0 mm 0.00 in0.0 mm 0.00 in0.0 mm
08:37 AM 29.8°F-1.2°C 25.0°F-3.9°C 82% 1.6 mph SE2.6 kmh SE 2.2 mph3.5 kmh 30.01 in1016.3 mb 0.00 in0.0 mm 0.00 in0.0 mm 0.00 in0.0 mm
08:32 AM 29.8°F-1.2°C 25.0°F-3.9°C 82% Calm Calm 1.6 mph2.6 kmh 30.01 in1016.3 mb 0.00 in0.0 mm 0.00 in0.0 mm 0.00 in0.0 mm
08:26 AM 29.8°F-1.2°C 25.0°F-3.9°C 82% 0.7 mph SE1.1 kmh SE 2.2 mph3.5 kmh 30.01 in1016.3 mb 0.00 in0.0 mm 0.00 in0.0 mm 0.00 in0.0 mm
08:22 AM 29.8°F-1.2°C 24.7°F-4.1°C 81% 1.6 mph SE2.6 kmh SE 3.1 mph5.0 kmh 30.00 in1015.9 mb 0.00 in0.0 mm 0.00 in0.0 mm 0.00 in0.0 mm
08:17 AM 29.8°F-1.2°C 24.7°F-4.1°C 81% 0.7 mph S1.1 kmh S 1.6 mph2.6 kmh 30.00 in1015.9 mb 0.00 in0.0 mm 0.00 in0.0 mm 0.00 in0.0 mm
08:12 AM 29.8°F-1.2°C 24.7°F-4.1°C 81% 0.7 mph NE1.1 kmh NE 2.2 mph3.5 kmh 29.99 in1015.6 mb 0.00 in0.0 mm 0.00 in0.0 mm 0.00 in0.0 mm
08:06 AM 29.7°F-1.3°C 24.6°F-4.1°C 81% 1.6 mph SE2.6 kmh SE 2.2 mph3.5 kmh 29.99 in1015.6 mb 0.00 in0.0 mm 0.00 in0.0 mm 0.00 in0.0 mm
08:02 AM 29.7°F-1.3°C 24.6°F-4.1°C 81% 1.6 mph SE2.6 kmh SE 2.2 mph3.5 kmh 29.99 in1015.6 mb 0.00 in0.0 mm 0.00 in0.0 mm 0.00 in0.0 mm
07:57 AM 29.7°F-1.3°C 24.6°F-4.1°C 81% 2.2 mph S3.5 kmh S 3.1 mph5.0 kmh 29.98 in1015.2 mb 0.00 in0.0 mm 0.00 in0.0 mm 0.00 in0.0 mm
07:52 AM 29.7°F-1.3°C 24.6°F-4.1°C 81% 1.6 mph SSE2.6 kmh SSE 2.2 mph3.5 kmh 29.98 in1015.2 mb 0.00 in0.0 mm 0.00 in0.0 mm 0.00 in0.0 mm
07:46 AM 29.7°F-1.3°C 24.6°F-4.1°C 81% 0.7 mph SE1.1 kmh SE 2.2 mph3.5 kmh 29.98 in1015.2 mb 0.00 in0.0 mm 0.00 in0.0 mm 0.00 in0.0 mm
07:42 AM 29.7°F-1.3°C 24.6°F-4.1°C 81% 0.7 mph SE1.1 kmh SE 1.6 mph2.6 kmh 29.97 in1014.9 mb 0.00 in0.0 mm 0.00 in0.0 mm 0.00 in0.0 mm
07:37 AM 29.5°F-1.4°C 24.4°F-4.2°C 81% Calm Calm 0.7 mph1.1 kmh 29.97 in1014.9 mb 0.00 in0.0 mm 0.00 in0.0 mm 0.00 in0.0 mm
07:32 AM 29.5°F-1.4°C 24.4°F-4.2°C 81% 0.7 mph SSW1.1 kmh SSW 2.2 mph3.5 kmh 29.97 in1014.9 mb 0.00 in0.0 mm 0.00 in0.0 mm 0.00 in0.0 mm
07:26 AM 29.5°F-1.4°C 24.4°F-4.2°C 81% 0.7 mph SE1.1 kmh SE 2.2 mph3.5 kmh 29.96 in1014.6 mb 0.00 in0.0 mm 0.00 in0.0 mm 0.00 in0.0 mm
07:22 AM 29.5°F-1.4°C 24.4°F-4.2°C 81% 2.2 mph SSE3.5 kmh SSE 3.8 mph6.1 kmh 29.97 in1014.9 mb 0.00 in0.0 mm 0.00 in0.0 mm 0.00 in0.0 mm
07:17 AM 29.5°F-1.4°C 24.4°F-4.2°C 81% 1.6 mph S2.6 kmh S 3.1 mph5.0 kmh 29.96 in1014.6 mb 0.00 in0.0 mm 0.00 in0.0 mm 0.00 in0.0 mm
07:12 AM 29.5°F-1.4°C 24.1°F-4.4°C 80% 1.6 mph SSW2.6 kmh SSW 3.1 mph5.0 kmh 29.96 in1014.6 mb 0.00 in0.0 mm 0.00 in0.0 mm 0.00 in0.0 mm
07:06 AM 29.5°F-1.4°C 24.1°F-4.4°C 80% 0.7 mph SE1.1 kmh SE 1.6 mph2.6 kmh 29.96 in1014.6 mb 0.00 in0.0 mm 0.00 in0.0 mm 0.00 in0.0 mm
07:02 AM 29.5°F-1.4°C 24.1°F-4.4°C 80% 0.7 mph SE1.1 kmh SE 1.6 mph2.6 kmh 29.96 in1014.6 mb 0.00 in0.0 mm 0.00 in0.0 mm 0.00 in0.0 mm
06:57 AM 29.5°F-1.4°C 24.1°F-4.4°C 80% 2.2 mph NE3.5 kmh NE 3.8 mph6.1 kmh 29.96 in1014.6 mb 0.00 in0.0 mm 0.00 in0.0 mm 0.00 in0.0 mm
06:52 AM 29.5°F-1.4°C 24.1°F-4.4°C 80% 0.7 mph NE1.1 kmh NE 2.2 mph3.5 kmh 29.95 in1014.2 mb 0.00 in0.0 mm 0.00 in0.0 mm 0.00 in0.0 mm
06:46 AM 29.5°F-1.4°C 24.1°F-4.4°C 80% 1.6 mph SE2.6 kmh SE 2.2 mph3.5 kmh 29.96 in1014.6 mb 0.00 in0.0 mm 0.00 in0.0 mm 0.00 in0.0 mm
06:42 AM 29.5°F-1.4°C 24.1°F-4.4°C 80% 2.2 mph S3.5 kmh S 3.1 mph5.0 kmh 29.95 in1014.2 mb 0.00 in0.0 mm 0.00 in0.0 mm 0.00 in0.0 mm
06:37 AM 29.3°F-1.5°C 23.9°F-4.5°C 80% 1.6 mph SE2.6 kmh SE 3.1 mph5.0 kmh 29.95 in1014.2 mb 0.00 in0.0 mm 0.00 in0.0 mm 0.00 in0.0 mm
06:32 AM 29.3°F-1.5°C 23.9°F-4.5°C 80% 1.6 mph S2.6 kmh S 3.1 mph5.0 kmh 29.95 in1014.2 mb 0.00 in0.0 mm 0.00 in0.0 mm 0.00 in0.0 mm
06:26 AM 29.3°F-1.5°C 23.9°F-4.5°C 80% Calm Calm -- 29.94 in1013.9 mb 0.00 in0.0 mm 0.00 in0.0 mm 0.00 in0.0 mm
06:22 AM 29.3°F-1.5°C 23.9°F-4.5°C 80% Calm Calm 1.6 mph2.6 kmh 29.95 in1014.2 mb 0.00 in0.0 mm 0.00 in0.0 mm 0.00 in0.0 mm
06:17 AM 29.3°F-1.5°C 23.9°F-4.5°C 80% Calm Calm 1.6 mph2.6 kmh 29.94 in1013.9 mb 0.00 in0.0 mm 0.00 in0.0 mm 0.00 in0.0 mm
06:12 AM 29.3°F-1.5°C 23.9°F-4.5°C 80% 0.7 mph E1.1 kmh E 2.2 mph3.5 kmh 29.94 in1013.9 mb 0.00 in0.0 mm 0.00 in0.0 mm 0.00 in0.0 mm
06:06 AM 29.3°F-1.5°C 23.6°F-4.7°C 79% 1.6 mph S2.6 kmh S 3.1 mph5.0 kmh 29.93 in1013.5 mb 0.00 in0.0 mm 0.00 in0.0 mm 0.00 in0.0 mm
06:02 AM 29.3°F-1.5°C 23.6°F-4.7°C 79% 1.6 mph S2.6 kmh S 3.1 mph5.0 kmh 29.93 in1013.5 mb 0.00 in0.0 mm 0.00 in0.0 mm 0.00 in0.0 mm
05:57 AM 29.1°F-1.6°C 23.4°F-4.8°C 79% 1.6 mph SE2.6 kmh SE 2.2 mph3.5 kmh 29.93 in1013.5 mb 0.00 in0.0 mm 0.00 in0.0 mm 0.00 in0.0 mm
05:52 AM 29.1°F-1.6°C 23.4°F-4.8°C 79% 1.6 mph E2.6 kmh E 3.1 mph5.0 kmh 29.93 in1013.5 mb 0.00 in0.0 mm 0.00 in0.0 mm 0.00 in0.0 mm
05:46 AM 29.1°F-1.6°C 23.4°F-4.8°C 79% 0.7 mph SE1.1 kmh SE 1.6 mph2.6 kmh 29.93 in1013.5 mb 0.00 in0.0 mm 0.00 in0.0 mm 0.00 in0.0 mm
05:42 AM 29.1°F-1.6°C 23.4°F-4.8°C 79% 0.7 mph SE1.1 kmh SE 1.6 mph2.6 kmh 29.93 in1013.5 mb 0.00 in0.0 mm 0.00 in0.0 mm 0.00 in0.0 mm
05:37 AM 29.1°F-1.6°C 23.4°F-4.8°C 79% 0.7 mph SE1.1 kmh SE 2.2 mph3.5 kmh 29.92 in1013.2 mb 0.00 in0.0 mm 0.00 in0.0 mm 0.00 in0.0 mm
05:32 AM 29.1°F-1.6°C 23.4°F-4.8°C 79% 1.6 mph S2.6 kmh S 3.1 mph5.0 kmh 29.92 in1013.2 mb 0.00 in0.0 mm 0.00 in0.0 mm 0.00 in0.0 mm
05:26 AM 29.1°F-1.6°C 23.4°F-4.8°C 79% 1.6 mph S2.6 kmh S 3.1 mph5.0 kmh 29.92 in1013.2 mb 0.00 in0.0 mm 0.00 in0.0 mm 0.00 in0.0 mm
05:22 AM 29.1°F-1.6°C 23.4°F-4.8°C 79% 0.7 mph S1.1 kmh S 2.2 mph3.5 kmh 29.92 in1013.2 mb 0.00 in0.0 mm 0.00 in0.0 mm 0.00 in0.0 mm
05:17 AM 29.1°F-1.6°C 23.4°F-4.8°C 79% Calm Calm 0.7 mph1.1 kmh 29.92 in1013.2 mb 0.00 in0.0 mm 0.00 in0.0 mm 0.00 in0.0 mm
05:12 AM 29.1°F-1.6°C 23.4°F-4.8°C 79% 0.7 mph SE1.1 kmh SE 1.6 mph2.6 kmh 29.92 in1013.2 mb 0.00 in0.0 mm 0.00 in0.0 mm 0.00 in0.0 mm
05:06 AM 29.1°F-1.6°C 23.4°F-4.8°C 79% Calm Calm 0.7 mph1.1 kmh 29.91 in1012.9 mb 0.00 in0.0 mm 0.00 in0.0 mm 0.00 in0.0 mm
05:02 AM 28.9°F-1.7°C 23.3°F-4.8°C 79% Calm Calm 1.6 mph2.6 kmh 29.91 in1012.9 mb 0.00 in0.0 mm 0.00 in0.0 mm 0.00 in0.0 mm
04:57 AM 28.9°F-1.7°C 23.3°F-4.8°C 79% Calm Calm 1.6 mph2.6 kmh 29.91 in1012.9 mb 0.00 in0.0 mm 0.00 in0.0 mm 0.00 in0.0 mm
04:52 AM 28.9°F-1.7°C 23.3°F-4.8°C 79% Calm Calm -- 29.91 in1012.9 mb 0.00 in0.0 mm 0.00 in0.0 mm 0.00 in0.0 mm
04:46 AM 28.9°F-1.7°C 23.3°F-4.8°C 79% Calm Calm -- 29.91 in1012.9 mb 0.00 in0.0 mm 0.00 in0.0 mm 0.00 in0.0 mm
04:42 AM 28.9°F-1.7°C 23.0°F-5.0°C 78% 0.7 mph S1.1 kmh S 1.6 mph2.6 kmh 29.90 in1012.5 mb 0.00 in0.0 mm 0.00 in0.0 mm 0.00 in0.0 mm
04:37 AM 28.9°F-1.7°C 23.0°F-5.0°C 78% 0.7 mph SE1.1 kmh SE 1.6 mph2.6 kmh 29.90 in1012.5 mb 0.00 in0.0 mm 0.00 in0.0 mm 0.00 in0.0 mm
04:32 AM 28.8°F-1.8°C 22.8°F-5.1°C 78% 1.6 mph SE2.6 kmh SE 3.1 mph5.0 kmh 29.90 in1012.5 mb 0.00 in0.0 mm 0.00 in0.0 mm 0.00 in0.0 mm
04:26 AM 28.8°F-1.8°C 22.8°F-5.1°C 78% 2.2 mph S3.5 kmh S 3.1 mph5.0 kmh 29.90 in1012.5 mb 0.00 in0.0 mm 0.00 in0.0 mm 0.00 in0.0 mm
04:22 AM 28.8°F-1.8°C 22.8°F-5.1°C 78% 1.6 mph S2.6 kmh S 3.1 mph5.0 kmh 29.90 in1012.5 mb 0.00 in0.0 mm 0.00 in0.0 mm 0.00 in0.0 mm
04:17 AM 28.8°F-1.8°C 22.8°F-5.1°C 78% 3.1 mph SE5.0 kmh SE 4.5 mph7.2 kmh 29.89 in1012.2 mb 0.00 in0.0 mm 0.00 in0.0 mm 0.00 in0.0 mm
04:12 AM 28.6°F-1.9°C 22.6°F-5.2°C 78% 0.7 mph SE1.1 kmh SE 1.6 mph2.6 kmh 29.89 in1012.2 mb 0.00 in0.0 mm 0.00 in0.0 mm 0.00 in0.0 mm
04:06 AM 28.6°F-1.9°C 22.6°F-5.2°C 78% 1.6 mph S2.6 kmh S 3.8 mph6.1 kmh 29.89 in1012.2 mb 0.00 in0.0 mm 0.00 in0.0 mm 0.00 in0.0 mm
04:02 AM 28.6°F-1.9°C 22.6°F-5.2°C 78% 1.6 mph S2.6 kmh S 3.8 mph6.1 kmh 29.89 in1012.2 mb 0.00 in0.0 mm 0.00 in0.0 mm 0.00 in0.0 mm
03:57 AM 28.6°F-1.9°C 22.6°F-5.2°C 78% 1.6 mph SE2.6 kmh SE 3.1 mph5.0 kmh 29.89 in1012.2 mb 0.00 in0.0 mm 0.00 in0.0 mm 0.00 in0.0 mm
03:52 AM 28.6°F-1.9°C 22.6°F-5.2°C 78% 1.6 mph S2.6 kmh S 2.2 mph3.5 kmh 29.88 in1011.9 mb 0.00 in0.0 mm 0.00 in0.0 mm 0.00 in0.0 mm
03:46 AM 28.6°F-1.9°C 22.3°F-5.4°C 77% 2.2 mph SE3.5 kmh SE 6.0 mph9.7 kmh 29.88 in1011.9 mb 0.00 in0.0 mm 0.00 in0.0 mm 0.00 in0.0 mm
03:42 AM 28.6°F-1.9°C 22.3°F-5.4°C 77% 1.6 mph SSW2.6 kmh SSW 3.1 mph5.0 kmh 29.88 in1011.9 mb 0.00 in0.0 mm 0.00 in0.0 mm 0.00 in0.0 mm
03:37 AM 28.4°F-2.0°C 22.1°F-5.5°C 77% 1.6 mph SE2.6 kmh SE 3.8 mph6.1 kmh 29.88 in1011.9 mb 0.00 in0.0 mm 0.00 in0.0 mm 0.00 in0.0 mm
03:32 AM 28.4°F-2.0°C 22.1°F-5.5°C 77% 1.6 mph SE2.6 kmh SE 4.5 mph7.2 kmh 29.88 in1011.9 mb 0.00 in0.0 mm 0.00 in0.0 mm 0.00 in0.0 mm
03:26 AM 28.4°F-2.0°C 22.1°F-5.5°C 77% 2.2 mph SSE3.5 kmh SSE 3.8 mph6.1 kmh 29.88 in1011.9 mb 0.00 in0.0 mm 0.00 in0.0 mm 0.00 in0.0 mm
03:22 AM 28.4°F-2.0°C 22.1°F-5.5°C 77% 1.6 mph S2.6 kmh S 3.8 mph6.1 kmh 29.88 in1011.9 mb 0.00 in0.0 mm 0.00 in0.0 mm 0.00 in0.0 mm
03:17 AM 28.4°F-2.0°C 22.1°F-5.5°C 77% 2.2 mph S3.5 kmh S 3.8 mph6.1 kmh 29.88 in1011.9 mb 0.00 in0.0 mm 0.00 in0.0 mm 0.00 in0.0 mm
03:12 AM 28.4°F-2.0°C 21.8°F-5.7°C 76% 2.2 mph S3.5 kmh S 3.8 mph6.1 kmh 29.87 in1011.5 mb 0.00 in0.0 mm 0.00 in0.0 mm 0.00 in0.0 mm
03:06 AM 28.4°F-2.0°C 21.8°F-5.7°C 76% 2.2 mph SSW3.5 kmh SSW 3.8 mph6.1 kmh 29.87 in1011.5 mb 0.00 in0.0 mm 0.00 in0.0 mm 0.00 in0.0 mm
03:02 AM 28.2°F-2.1°C 20.4°F-6.4°C 72% 2.2 mph S3.5 kmh S 3.8 mph6.1 kmh 29.87 in1011.5 mb 0.00 in0.0 mm 0.00 in0.0 mm 0.00 in0.0 mm
02:57 AM 28.2°F-2.1°C 20.4°F-6.4°C 72% 2.2 mph SW3.5 kmh SW 3.8 mph6.1 kmh 29.87 in1011.5 mb 0.00 in0.0 mm 0.00 in0.0 mm 0.00 in0.0 mm
02:52 AM 28.2°F-2.1°C 20.4°F-6.4°C 72% 3.1 mph S5.0 kmh S 4.5 mph7.2 kmh 29.87 in1011.5 mb 0.00 in0.0 mm 0.00 in0.0 mm 0.00 in0.0 mm
02:46 AM 28.2°F-2.1°C 20.0°F-6.7°C 71% 2.2 mph SE3.5 kmh SE 3.1 mph5.0 kmh 29.86 in1011.2 mb 0.00 in0.0 mm 0.00 in0.0 mm 0.00 in0.0 mm
02:42 AM 28.2°F-2.1°C 20.0°F-6.7°C 71% 1.6 mph NE2.6 kmh NE 2.2 mph3.5 kmh 29.87 in1011.5 mb 0.00 in0.0 mm 0.00 in0.0 mm 0.00 in0.0 mm
02:37 AM 28.2°F-2.1°C 20.0°F-6.7°C 71% 3.1 mph S5.0 kmh S 3.8 mph6.1 kmh 29.87 in1011.5 mb 0.00 in0.0 mm 0.00 in0.0 mm 0.00 in0.0 mm
02:32 AM 28.4°F-2.0°C 21.5°F-5.8°C 75% 3.1 mph NE5.0 kmh NE 4.5 mph7.2 kmh 29.87 in1011.5 mb 0.00 in0.0 mm 0.00 in0.0 mm 0.00 in0.0 mm
02:26 AM 28.4°F-2.0°C 21.5°F-5.8°C 75% 1.6 mph SE2.6 kmh SE 3.1 mph5.0 kmh 29.86 in1011.2 mb 0.00 in0.0 mm 0.00 in0.0 mm 0.00 in0.0 mm
02:22 AM 28.4°F-2.0°C 21.2°F-6.0°C 74% 2.2 mph W3.5 kmh W 3.8 mph6.1 kmh 29.86 in1011.2 mb 0.00 in0.0 mm 0.00 in0.0 mm 0.00 in0.0 mm
02:17 AM 28.6°F-1.9°C 21.4°F-5.9°C 74% 2.2 mph S3.5 kmh S 3.8 mph6.1 kmh 29.85 in1010.8 mb 0.00 in0.0 mm 0.00 in0.0 mm 0.00 in0.0 mm
02:12 AM 28.6°F-1.9°C 21.4°F-5.9°C 74% 2.2 mph SE3.5 kmh SE 3.1 mph5.0 kmh 29.85 in1010.8 mb 0.00 in0.0 mm 0.00 in0.0 mm 0.00 in0.0 mm
02:07 AM 28.9°F-1.7°C 21.7°F-5.7°C 74% 2.2 mph S3.5 kmh S 3.8 mph6.1 kmh 29.85 in1010.8 mb 0.00 in0.0 mm 0.00 in0.0 mm 0.00 in0.0 mm
02:02 AM 28.9°F-1.7°C 21.7°F-5.7°C 74% 2.2 mph S3.5 kmh S 3.8 mph6.1 kmh 29.85 in1010.8 mb 0.00 in0.0 mm 0.00 in0.0 mm 0.00 in0.0 mm
01:57 AM 28.9°F-1.7°C 21.4°F-5.9°C 73% 1.6 mph SE2.6 kmh SE 3.1 mph5.0 kmh 29.85 in1010.8 mb 0.00 in0.0 mm 0.00 in0.0 mm 0.00 in0.0 mm
01:52 AM 28.9°F-1.7°C 21.4°F-5.9°C 73% 3.1 mph SE5.0 kmh SE 4.5 mph7.2 kmh 29.85 in1010.8 mb 0.00 in0.0 mm 0.00 in0.0 mm 0.00 in0.0 mm
01:46 AM 29.1°F-1.6°C 21.6°F-5.8°C 73% 2.2 mph SE3.5 kmh SE 3.8 mph6.1 kmh 29.84 in1010.5 mb 0.00 in0.0 mm 0.00 in0.0 mm 0.00 in0.0 mm
01:42 AM 29.1°F-1.6°C 21.6°F-5.8°C 73% 3.8 mph SE6.1 kmh SE 4.5 mph7.2 kmh 29.84 in1010.5 mb 0.00 in0.0 mm 0.00 in0.0 mm 0.00 in0.0 mm
01:37 AM 29.1°F-1.6°C 21.6°F-5.8°C 73% 1.6 mph SE2.6 kmh SE 3.1 mph5.0 kmh 29.85 in1010.8 mb 0.00 in0.0 mm 0.00 in0.0 mm 0.00 in0.0 mm
01:32 AM 29.1°F-1.6°C 21.6°F-5.8°C 73% 1.6 mph SE2.6 kmh SE 3.1 mph5.0 kmh 29.84 in1010.5 mb 0.00 in0.0 mm 0.00 in0.0 mm 0.00 in0.0 mm
01:26 AM 29.1°F-1.6°C 21.6°F-5.8°C 73% 3.1 mph S5.0 kmh S 4.5 mph7.2 kmh 29.84 in1010.5 mb 0.00 in0.0 mm 0.00 in0.0 mm 0.00 in0.0 mm
01:22 AM 29.1°F-1.6°C 21.6°F-5.8°C 73% 1.6 mph SE2.6 kmh SE 3.1 mph5.0 kmh 29.84 in1010.5 mb 0.00 in0.0 mm 0.00 in0.0 mm 0.00 in0.0 mm
01:17 AM 29.1°F-1.6°C 21.6°F-5.8°C 73% 3.1 mph SSE5.0 kmh SSE 4.5 mph7.2 kmh 29.84 in1010.5 mb 0.00 in0.0 mm 0.00 in0.0 mm 0.00 in0.0 mm
01:12 AM 29.1°F-1.6°C 21.6°F-5.8°C 73% 3.8 mph S6.1 kmh S 6.0 mph9.7 kmh 29.84 in1010.5 mb 0.00 in0.0 mm 0.00 in0.0 mm 0.00 in0.0 mm
01:06 AM 29.1°F-1.6°C 21.6°F-5.8°C 73% 1.6 mph SE2.6 kmh SE 3.1 mph5.0 kmh 29.83 in1010.2 mb 0.00 in0.0 mm 0.00 in0.0 mm 0.00 in0.0 mm
01:02 AM 29.1°F-1.6°C 21.6°F-5.8°C 73% 1.6 mph E2.6 kmh E 3.1 mph5.0 kmh 29.83 in1010.2 mb 0.00 in0.0 mm 0.00 in0.0 mm 0.00 in0.0 mm
12:57 AM 29.1°F-1.6°C 21.2°F-6.0°C 72% 3.1 mph S5.0 kmh S 4.5 mph7.2 kmh 29.83 in1010.2 mb 0.00 in0.0 mm 0.00 in0.0 mm 0.00 in0.0 mm
12:52 AM 29.1°F-1.6°C 21.2°F-6.0°C 72% 3.8 mph S6.1 kmh S 5.4 mph8.7 kmh 29.83 in1010.2 mb 0.00 in0.0 mm 0.00 in0.0 mm 0.00 in0.0 mm
12:46 AM 29.1°F-1.6°C 21.2°F-6.0°C 72% 3.8 mph S6.1 kmh S 6.0 mph9.7 kmh 29.83 in1010.2 mb 0.00 in0.0 mm 0.00 in0.0 mm 0.00 in0.0 mm
12:42 AM 29.1°F-1.6°C 21.2°F-6.0°C 72% 4.5 mph S7.2 kmh S 8.3 mph13.4 kmh 29.82 in1009.8 mb 0.00 in0.0 mm 0.00 in0.0 mm 0.00 in0.0 mm
12:37 AM 29.1°F-1.6°C 21.2°F-6.0°C 72% 2.2 mph S3.5 kmh S 3.8 mph6.1 kmh 29.82 in1009.8 mb 0.00 in0.0 mm 0.00 in0.0 mm 0.00 in0.0 mm
12:32 AM 29.1°F-1.6°C 21.2°F-6.0°C 72% 1.6 mph SSE2.6 kmh SSE 3.8 mph6.1 kmh 29.82 in1009.8 mb 0.00 in0.0 mm 0.00 in0.0 mm 0.00 in0.0 mm
12:26 AM 29.1°F-1.6°C 21.2°F-6.0°C 72% 1.6 mph SE2.6 kmh SE 3.1 mph5.0 kmh 29.82 in1009.8 mb 0.00 in0.0 mm 0.00 in0.0 mm 0.00 in0.0 mm
12:22 AM 28.9°F-1.7°C 21.1°F-6.1°C 72% 3.1 mph E5.0 kmh E 6.0 mph9.7 kmh 29.82 in1009.8 mb 0.00 in0.0 mm 0.00 in0.0 mm 0.00 in0.0 mm
12:17 AM 29.1°F-1.6°C 21.2°F-6.0°C 72% 3.8 mph SE6.1 kmh SE 6.9 mph11.1 kmh 29.82 in1009.8 mb 0.00 in0.0 mm 0.00 in0.0 mm 0.00 in0.0 mm
12:12 AM 29.1°F-1.6°C 21.2°F-6.0°C 72% 3.8 mph SSE6.1 kmh SSE 6.9 mph11.1 kmh 29.82 in1009.8 mb 0.00 in0.0 mm 0.00 in0.0 mm 0.00 in0.0 mm
12:06 AM 29.1°F-1.6°C 21.2°F-6.0°C 72% 3.8 mph SE6.1 kmh SE 6.0 mph9.7 kmh 29.81 in1009.5 mb 0.00 in0.0 mm 0.00 in0.0 mm 0.00 in0.0 mm
12:02 AM 29.1°F-1.6°C 21.2°F-6.0°C 72% 3.8 mph SE6.1 kmh SE 6.0 mph9.7 kmh 29.82 in1009.8 mb 0.00 in0.0 mm 0.00 in0.0 mm 0.00 in0.0 mm